sensor_id;sensor_type;location;lat;lon;timestamp;pressure;altitude;pressure_sealevel;temperature;humidity
1401;BME280;46518;48.842;8.926;2024-01-30T00:01:30;98425.19;;;6.78;63.50
1401;BME280;46518;48.842;8.926;2024-01-30T00:03:59;98418.59;;;6.17;63.87
1401;BME280;46518;48.842;8.926;2024-01-30T00:06:27;98425.56;;;5.80;65.08
1401;BME280;46518;48.842;8.926;2024-01-30T00:08:55;98421.63;;;5.70;65.97
1401;BME280;46518;48.842;8.926;2024-01-30T00:11:24;98421.25;;;5.73;66.76
1401;BME280;46518;48.842;8.926;2024-01-30T00:13:52;98421.13;;;5.81;67.25
1401;BME280;46518;48.842;8.926;2024-01-30T00:16:21;98420.41;;;5.87;68.25
1401;BME280;46518;48.842;8.926;2024-01-30T00:18:52;98421.94;;;5.81;68.37
1401;BME280;46518;48.842;8.926;2024-01-30T00:21:21;98430.50;;;5.90;68.28
1401;BME280;46518;48.842;8.926;2024-01-30T00:23:50;98427.44;;;6.01;66.93
1401;BME280;46518;48.842;8.926;2024-01-30T00:26:18;98429.34;;;5.78;66.90
1401;BME280;46518;48.842;8.926;2024-01-30T00:28:47;98426.75;;;5.48;68.22
1401;BME280;46518;48.842;8.926;2024-01-30T00:31:16;98430.34;;;5.47;69.31
1401;BME280;46518;48.842;8.926;2024-01-30T00:33:44;98428.53;;;5.62;69.26
1401;BME280;46518;48.842;8.926;2024-01-30T00:36:13;98429.88;;;5.73;69.01
1401;BME280;46518;48.842;8.926;2024-01-30T00:38:42;98434.72;;;5.76;68.73
1401;BME280;46518;48.842;8.926;2024-01-30T00:41:10;98432.69;;;5.42;70.64
1401;BME280;46518;48.842;8.926;2024-01-30T00:43:39;98435.56;;;5.47;71.24
1401;BME280;46518;48.842;8.926;2024-01-30T00:46:07;98426.31;;;5.45;71.70
1401;BME280;46518;48.842;8.926;2024-01-30T00:48:38;98430.72;;;5.29;73.29
1401;BME280;46518;48.842;8.926;2024-01-30T00:51:06;98428.63;;;5.25;72.96
1401;BME280;46518;48.842;8.926;2024-01-30T00:53:35;98422.56;;;5.09;74.36
1401;BME280;46518;48.842;8.926;2024-01-30T00:56:04;98430.63;;;4.85;76.26
1401;BME280;46518;48.842;8.926;2024-01-30T00:58:32;98426.31;;;4.92;76.20
1401;BME280;46518;48.842;8.926;2024-01-30T01:01:01;98423.28;;;5.18;75.66
1401;BME280;46518;48.842;8.926;2024-01-30T01:03:29;98420.34;;;5.36;74.32
1401;BME280;46518;48.842;8.926;2024-01-30T01:06:00;98424.59;;;5.52;72.66
1401;BME280;46518;48.842;8.926;2024-01-30T01:08:28;98420.88;;;5.76;71.92
1401;BME280;46518;48.842;8.926;2024-01-30T01:10:58;98422.50;;;5.92;70.54
1401;BME280;46518;48.842;8.926;2024-01-30T01:13:26;98423.84;;;6.02;70.43
1401;BME280;46518;48.842;8.926;2024-01-30T01:15:54;98420.56;;;6.15;68.26
1401;BME280;46518;48.842;8.926;2024-01-30T01:18:22;98430.28;;;6.21;67.78
1401;BME280;46518;48.842;8.926;2024-01-30T01:20:50;98430.94;;;5.79;68.55
1401;BME280;46518;48.842;8.926;2024-01-30T01:23:19;98433.38;;;5.36;71.95
1401;BME280;46518;48.842;8.926;2024-01-30T01:25:47;98435.91;;;5.14;73.46
1401;BME280;46518;48.842;8.926;2024-01-30T01:28:17;98428.38;;;4.96;75.07
1401;BME280;46518;48.842;8.926;2024-01-30T01:30:45;98430.47;;;5.01;75.23
1401;BME280;46518;48.842;8.926;2024-01-30T01:33:14;98431.78;;;5.35;74.10
1401;BME280;46518;48.842;8.926;2024-01-30T01:35:42;98421.50;;;5.63;72.38
1401;BME280;46518;48.842;8.926;2024-01-30T01:38:10;98421.34;;;5.94;71.71
1401;BME280;46518;48.842;8.926;2024-01-30T01:40:39;98433.38;;;6.10;70.13
1401;BME280;46518;48.842;8.926;2024-01-30T01:43:08;98428.69;;;5.91;69.13
1401;BME280;46518;48.842;8.926;2024-01-30T01:45:37;98427.81;;;5.39;71.91
1401;BME280;46518;48.842;8.926;2024-01-30T01:48:07;98419.09;;;5.17;73.16
1401;BME280;46518;48.842;8.926;2024-01-30T01:50:36;98414.84;;;5.46;72.71
1401;BME280;46518;48.842;8.926;2024-01-30T01:53:06;98397.31;;;5.54;71.00
1401;BME280;46518;48.842;8.926;2024-01-30T01:55:35;98416.00;;;5.88;69.99
1401;BME280;46518;48.842;8.926;2024-01-30T01:58:04;98411.91;;;6.15;69.21
1401;BME280;46518;48.842;8.926;2024-01-30T02:00:33;98418.63;;;6.24;68.38
1401;BME280;46518;48.842;8.926;2024-01-30T02:03:04;98420.91;;;6.27;67.23
1401;BME280;46518;48.842;8.926;2024-01-30T02:05:34;98416.59;;;6.19;67.44
1401;BME280;46518;48.842;8.926;2024-01-30T02:08:03;98421.22;;;5.88;68.00
1401;BME280;46518;48.842;8.926;2024-01-30T02:10:31;98400.97;;;5.75;68.70
1401;BME280;46518;48.842;8.926;2024-01-30T02:12:59;98421.63;;;6.21;67.81
1401;BME280;46518;48.842;8.926;2024-01-30T02:15:28;98423.81;;;6.39;66.82
1401;BME280;46518;48.842;8.926;2024-01-30T02:17:56;98428.41;;;6.52;66.26
1401;BME280;46518;48.842;8.926;2024-01-30T02:20:30;98428.16;;;6.46;65.57
1401;BME280;46518;48.842;8.926;2024-01-30T02:23:00;98423.00;;;6.38;64.86
1401;BME280;46518;48.842;8.926;2024-01-30T02:25:33;98427.06;;;6.19;65.31
1401;BME280;46518;48.842;8.926;2024-01-30T02:28:01;98427.78;;;6.13;64.88
1401;BME280;46518;48.842;8.926;2024-01-30T02:30:29;98423.38;;;5.84;66.06
1401;BME280;46518;48.842;8.926;2024-01-30T02:32:57;98429.34;;;5.63;67.19
1401;BME280;46518;48.842;8.926;2024-01-30T02:35:26;98425.75;;;5.49;67.69
1401;BME280;46518;48.842;8.926;2024-01-30T02:37:54;98422.25;;;5.27;68.87
1401;BME280;46518;48.842;8.926;2024-01-30T02:40:23;98432.44;;;4.99;71.66
1401;BME280;46518;48.842;8.926;2024-01-30T02:42:51;98437.72;;;4.91;71.23
1401;BME280;46518;48.842;8.926;2024-01-30T02:45:20;98436.91;;;4.90;71.71
1401;BME280;46518;48.842;8.926;2024-01-30T02:47:48;98434.88;;;5.01;71.57
1401;BME280;46518;48.842;8.926;2024-01-30T02:50:16;98425.19;;;5.09;71.54
1401;BME280;46518;48.842;8.926;2024-01-30T02:52:44;98435.63;;;5.09;71.10
1401;BME280;46518;48.842;8.926;2024-01-30T02:55:13;98438.44;;;5.23;70.46
1401;BME280;46518;48.842;8.926;2024-01-30T02:57:45;98434.91;;;5.15;71.00
1401;BME280;46518;48.842;8.926;2024-01-30T03:00:14;98431.38;;;5.08;71.59
1401;BME280;46518;48.842;8.926;2024-01-30T03:02:42;98434.09;;;4.77;71.45
1401;BME280;46518;48.842;8.926;2024-01-30T03:05:10;98433.22;;;4.85;72.32
1401;BME280;46518;48.842;8.926;2024-01-30T03:07:39;98427.31;;;5.06;71.89
1401;BME280;46518;48.842;8.926;2024-01-30T03:10:07;98423.19;;;5.11;71.13
1401;BME280;46518;48.842;8.926;2024-01-30T03:12:36;98425.28;;;5.16;71.18
1401;BME280;46518;48.842;8.926;2024-01-30T03:15:06;98423.84;;;5.28;71.42
1401;BME280;46518;48.842;8.926;2024-01-30T03:17:34;98427.47;;;5.42;71.52
1401;BME280;46518;48.842;8.926;2024-01-30T03:20:04;98424.13;;;5.48;70.40
1401;BME280;46518;48.842;8.926;2024-01-30T03:22:33;98421.41;;;5.56;70.47
1401;BME280;46518;48.842;8.926;2024-01-30T03:25:01;98425.41;;;5.52;70.23
1401;BME280;46518;48.842;8.926;2024-01-30T03:27:30;98421.16;;;5.51;69.11
1401;BME280;46518;48.842;8.926;2024-01-30T03:29:58;98419.53;;;5.35;69.08
1401;BME280;46518;48.842;8.926;2024-01-30T03:32:26;98421.97;;;5.22;69.62
1401;BME280;46518;48.842;8.926;2024-01-30T03:34:56;98417.91;;;5.19;69.12
1401;BME280;46518;48.842;8.926;2024-01-30T03:37:25;98422.66;;;5.16;69.27
1401;BME280;46518;48.842;8.926;2024-01-30T03:39:53;98425.22;;;4.86;69.83
1401;BME280;46518;48.842;8.926;2024-01-30T03:42:22;98425.00;;;4.50;71.70
1401;BME280;46518;48.842;8.926;2024-01-30T03:44:50;98426.03;;;4.41;73.76
1401;BME280;46518;48.842;8.926;2024-01-30T03:47:20;98424.31;;;4.33;73.96
1401;BME280;46518;48.842;8.926;2024-01-30T03:49:50;98423.06;;;4.52;74.22
1401;BME280;46518;48.842;8.926;2024-01-30T03:52:18;98425.00;;;4.50;73.34
1401;BME280;46518;48.842;8.926;2024-01-30T03:54:47;98431.72;;;4.67;72.51
1401;BME280;46518;48.842;8.926;2024-01-30T03:57:15;98428.72;;;4.56;72.69
1401;BME280;46518;48.842;8.926;2024-01-30T03:59:43;98436.19;;;4.59;73.74
1401;BME280;46518;48.842;8.926;2024-01-30T04:02:11;98432.19;;;4.71;73.38
1401;BME280;46518;48.842;8.926;2024-01-30T04:04:40;98434.84;;;4.86;73.11
1401;BME280;46518;48.842;8.926;2024-01-30T04:07:09;98426.84;;;4.87;72.62
1401;BME280;46518;48.842;8.926;2024-01-30T04:09:38;98428.19;;;4.83;72.58
1401;BME280;46518;48.842;8.926;2024-01-30T04:12:06;98415.16;;;4.98;71.97
1401;BME280;46518;48.842;8.926;2024-01-30T04:14:35;98414.81;;;5.01;71.14
1401;BME280;46518;48.842;8.926;2024-01-30T04:17:03;98423.75;;;4.84;71.03
1401;BME280;46518;48.842;8.926;2024-01-30T04:19:31;98420.09;;;4.55;72.24
1401;BME280;46518;48.842;8.926;2024-01-30T04:21:59;98420.78;;;4.49;72.10
1401;BME280;46518;48.842;8.926;2024-01-30T04:24:29;98422.16;;;4.37;72.41
1401;BME280;46518;48.842;8.926;2024-01-30T04:26:57;98419.31;;;4.46;72.71
1401;BME280;46518;48.842;8.926;2024-01-30T04:29:25;98419.44;;;4.53;72.61
1401;BME280;46518;48.842;8.926;2024-01-30T04:31:53;98414.63;;;4.65;72.54
1401;BME280;46518;48.842;8.926;2024-01-30T04:34:21;98414.63;;;4.65;72.83
1401;BME280;46518;48.842;8.926;2024-01-30T04:36:50;98415.22;;;4.75;72.47
1401;BME280;46518;48.842;8.926;2024-01-30T04:39:18;98418.09;;;4.80;72.15
1401;BME280;46518;48.842;8.926;2024-01-30T04:41:48;98418.22;;;4.87;71.25
1401;BME280;46518;48.842;8.926;2024-01-30T04:44:16;98418.47;;;4.77;70.93
1401;BME280;46518;48.842;8.926;2024-01-30T04:46:44;98421.69;;;4.79;70.98
1401;BME280;46518;48.842;8.926;2024-01-30T04:49:12;98417.19;;;4.73;71.40
1401;BME280;46518;48.842;8.926;2024-01-30T04:51:40;98416.28;;;4.81;72.59
1401;BME280;46518;48.842;8.926;2024-01-30T04:54:09;98412.28;;;4.93;71.81
1401;BME280;46518;48.842;8.926;2024-01-30T04:56:37;98424.66;;;4.76;71.47
1401;BME280;46518;48.842;8.926;2024-01-30T04:59:07;98414.69;;;4.33;73.19
1401;BME280;46518;48.842;8.926;2024-01-30T05:01:36;98427.59;;;3.96;75.08
1401;BME280;46518;48.842;8.926;2024-01-30T05:04:07;98428.72;;;4.01;77.00
1401;BME280;46518;48.842;8.926;2024-01-30T05:06:35;98431.19;;;4.26;75.90
1401;BME280;46518;48.842;8.926;2024-01-30T05:09:03;98434.22;;;4.38;75.12
1401;BME280;46518;48.842;8.926;2024-01-30T05:11:36;98431.31;;;4.32;75.34
1401;BME280;46518;48.842;8.926;2024-01-30T05:14:05;98427.47;;;4.66;74.83
1401;BME280;46518;48.842;8.926;2024-01-30T05:16:34;98430.94;;;4.67;74.43
1401;BME280;46518;48.842;8.926;2024-01-30T05:19:03;98424.75;;;4.83;73.86
1401;BME280;46518;48.842;8.926;2024-01-30T05:21:31;98423.88;;;4.90;71.91
1401;BME280;46518;48.842;8.926;2024-01-30T05:23:59;98423.25;;;4.88;71.58
1401;BME280;46518;48.842;8.926;2024-01-30T05:26:27;98427.91;;;4.78;71.26
1401;BME280;46518;48.842;8.926;2024-01-30T05:28:56;98429.00;;;4.61;72.34
1401;BME280;46518;48.842;8.926;2024-01-30T05:31:25;98428.88;;;4.77;72.17
1401;BME280;46518;48.842;8.926;2024-01-30T05:33:55;98432.72;;;4.89;71.22
1401;BME280;46518;48.842;8.926;2024-01-30T05:36:24;98431.91;;;4.66;73.56
1401;BME280;46518;48.842;8.926;2024-01-30T05:38:52;98432.09;;;4.79;71.68
1401;BME280;46518;48.842;8.926;2024-01-30T05:41:20;98429.88;;;4.53;71.66
1401;BME280;46518;48.842;8.926;2024-01-30T05:43:49;98438.72;;;4.44;72.37
1401;BME280;46518;48.842;8.926;2024-01-30T05:46:17;98443.34;;;4.33;72.50
1401;BME280;46518;48.842;8.926;2024-01-30T05:48:49;98438.50;;;4.30;73.64
1401;BME280;46518;48.842;8.926;2024-01-30T05:51:18;98451.34;;;4.01;73.48
1401;BME280;46518;48.842;8.926;2024-01-30T05:53:47;98443.72;;;3.60;75.99
1401;BME280;46518;48.842;8.926;2024-01-30T05:56:15;98452.78;;;3.64;76.86
1401;BME280;46518;48.842;8.926;2024-01-30T05:58:43;98446.03;;;3.86;76.04
1401;BME280;46518;48.842;8.926;2024-01-30T06:01:11;98446.13;;;4.01;75.85
1401;BME280;46518;48.842;8.926;2024-01-30T06:03:39;98445.78;;;4.04;75.19
1401;BME280;46518;48.842;8.926;2024-01-30T06:06:07;98449.56;;;4.01;75.73
1401;BME280;46518;48.842;8.926;2024-01-30T06:08:37;98449.09;;;3.98;75.36
1401;BME280;46518;48.842;8.926;2024-01-30T06:11:05;98445.38;;;3.92;75.21
1401;BME280;46518;48.842;8.926;2024-01-30T06:13:34;98454.19;;;3.83;76.61
1401;BME280;46518;48.842;8.926;2024-01-30T06:16:02;98453.56;;;3.81;76.57
1401;BME280;46518;48.842;8.926;2024-01-30T06:18:30;98450.78;;;3.82;77.01
1401;BME280;46518;48.842;8.926;2024-01-30T06:20:58;98450.53;;;3.61;77.81
1401;BME280;46518;48.842;8.926;2024-01-30T06:23:26;98451.53;;;3.60;79.65
1401;BME280;46518;48.842;8.926;2024-01-30T06:25:56;98458.34;;;3.61;78.66
1401;BME280;46518;48.842;8.926;2024-01-30T06:28:24;98458.00;;;3.64;80.46
1401;BME280;46518;48.842;8.926;2024-01-30T06:30:55;98460.97;;;3.53;79.20
1401;BME280;46518;48.842;8.926;2024-01-30T06:33:24;98453.50;;;3.50;81.25
1401;BME280;46518;48.842;8.926;2024-01-30T06:35:53;98455.25;;;3.57;80.59
1401;BME280;46518;48.842;8.926;2024-01-30T06:38:21;98458.00;;;3.64;80.84
1401;BME280;46518;48.842;8.926;2024-01-30T06:40:49;98459.84;;;3.47;81.89
1401;BME280;46518;48.842;8.926;2024-01-30T06:43:19;98454.50;;;3.32;83.19
1401;BME280;46518;48.842;8.926;2024-01-30T06:45:47;98453.69;;;3.23;84.18
1401;BME280;46518;48.842;8.926;2024-01-30T06:48:15;98455.19;;;3.18;84.87
1401;BME280;46518;48.842;8.926;2024-01-30T06:50:43;98455.84;;;3.20;85.09
1401;BME280;46518;48.842;8.926;2024-01-30T06:53:12;98457.94;;;3.24;85.91
1401;BME280;46518;48.842;8.926;2024-01-30T06:55:40;98457.28;;;3.31;85.26
1401;BME280;46518;48.842;8.926;2024-01-30T06:58:08;98467.44;;;3.57;84.20
1401;BME280;46518;48.842;8.926;2024-01-30T07:00:38;98466.28;;;3.67;83.11
1401;BME280;46518;48.842;8.926;2024-01-30T07:03:06;98463.47;;;3.85;82.44
1401;BME280;46518;48.842;8.926;2024-01-30T07:05:35;98463.16;;;4.20;80.79
1401;BME280;46518;48.842;8.926;2024-01-30T07:08:03;98465.25;;;4.24;79.28
1401;BME280;46518;48.842;8.926;2024-01-30T07:10:31;98467.97;;;4.00;78.94
1401;BME280;46518;48.842;8.926;2024-01-30T07:13:00;98464.38;;;4.01;78.96
1401;BME280;46518;48.842;8.926;2024-01-30T07:15:28;98471.63;;;3.82;79.32
1401;BME280;46518;48.842;8.926;2024-01-30T07:17:58;98464.88;;;3.96;79.04
1401;BME280;46518;48.842;8.926;2024-01-30T07:20:26;98460.75;;;4.10;78.42
1401;BME280;46518;48.842;8.926;2024-01-30T07:22:54;98459.56;;;4.21;78.37
1401;BME280;46518;48.842;8.926;2024-01-30T07:25:22;98459.09;;;4.17;78.00
1401;BME280;46518;48.842;8.926;2024-01-30T07:27:54;98455.38;;;4.43;77.49
1401;BME280;46518;48.842;8.926;2024-01-30T07:30:22;98466.88;;;4.48;77.22
1401;BME280;46518;48.842;8.926;2024-01-30T07:32:50;98454.41;;;4.67;76.84
1401;BME280;46518;48.842;8.926;2024-01-30T07:35:20;98459.63;;;4.67;76.29
1401;BME280;46518;48.842;8.926;2024-01-30T07:37:48;98462.97;;;4.75;75.93
1401;BME280;46518;48.842;8.926;2024-01-30T07:40:17;98467.53;;;4.73;75.01
1401;BME280;46518;48.842;8.926;2024-01-30T07:42:45;98466.84;;;4.80;73.75
1401;BME280;46518;48.842;8.926;2024-01-30T07:45:15;98464.81;;;4.67;73.99
1401;BME280;46518;48.842;8.926;2024-01-30T07:47:44;98468.88;;;4.69;74.50
1401;BME280;46518;48.842;8.926;2024-01-30T07:50:12;98471.94;;;4.73;73.71
1401;BME280;46518;48.842;8.926;2024-01-30T07:52:42;98469.69;;;4.70;75.04
1401;BME280;46518;48.842;8.926;2024-01-30T07:55:10;98478.91;;;4.26;78.47
1401;BME280;46518;48.842;8.926;2024-01-30T07:57:39;98479.94;;;4.17;80.06
1401;BME280;46518;48.842;8.926;2024-01-30T08:00:08;98476.00;;;4.21;79.81
1401;BME280;46518;48.842;8.926;2024-01-30T08:02:37;98466.88;;;4.25;79.33
1401;BME280;46518;48.842;8.926;2024-01-30T08:05:05;98470.59;;;4.54;77.68
1401;BME280;46518;48.842;8.926;2024-01-30T08:07:34;98469.69;;;4.70;76.77
1401;BME280;46518;48.842;8.926;2024-01-30T08:10:04;98473.38;;;4.98;77.27
1401;BME280;46518;48.842;8.926;2024-01-30T08:12:33;98479.06;;;5.40;75.21
1401;BME280;46518;48.842;8.926;2024-01-30T08:15:01;98474.66;;;5.03;75.32
1401;BME280;46518;48.842;8.926;2024-01-30T08:17:30;98472.22;;;5.01;75.00
1401;BME280;46518;48.842;8.926;2024-01-30T08:19:59;98470.88;;;5.05;76.12
1401;BME280;46518;48.842;8.926;2024-01-30T08:22:28;98468.13;;;5.22;74.54
1401;BME280;46518;48.842;8.926;2024-01-30T08:24:57;98461.75;;;5.54;73.71
1401;BME280;46518;48.842;8.926;2024-01-30T08:27:27;98473.59;;;5.94;72.99
1401;BME280;46518;48.842;8.926;2024-01-30T08:29:56;98471.84;;;6.16;72.15
1401;BME280;46518;48.842;8.926;2024-01-30T08:32:24;98475.00;;;6.26;70.99
1401;BME280;46518;48.842;8.926;2024-01-30T08:34:53;98475.81;;;6.48;70.56
1401;BME280;46518;48.842;8.926;2024-01-30T08:37:22;98473.53;;;6.60;69.83
1401;BME280;46518;48.842;8.926;2024-01-30T08:39:51;98481.94;;;6.56;69.52
1401;BME280;46518;48.842;8.926;2024-01-30T08:42:19;98476.69;;;6.34;69.75
1401;BME280;46518;48.842;8.926;2024-01-30T08:44:51;98480.59;;;6.09;71.07
1401;BME280;46518;48.842;8.926;2024-01-30T08:47:20;98487.09;;;6.13;71.45
1401;BME280;46518;48.842;8.926;2024-01-30T08:49:48;98481.88;;;6.13;72.49
1401;BME280;46518;48.842;8.926;2024-01-30T08:52:17;98481.69;;;6.14;72.56
1401;BME280;46518;48.842;8.926;2024-01-30T08:54:45;98481.38;;;6.24;71.36
1401;BME280;46518;48.842;8.926;2024-01-30T08:57:15;98482.31;;;6.01;72.67
1401;BME280;46518;48.842;8.926;2024-01-30T08:59:43;98476.97;;;6.24;72.52
1401;BME280;46518;48.842;8.926;2024-01-30T09:02:14;98484.94;;;6.53;71.61
1401;BME280;46518;48.842;8.926;2024-01-30T09:04:44;98485.06;;;6.87;70.51
1401;BME280;46518;48.842;8.926;2024-01-30T09:07:12;98489.53;;;6.94;70.14
1401;BME280;46518;48.842;8.926;2024-01-30T09:09:41;98486.16;;;7.21;69.82
1401;BME280;46518;48.842;8.926;2024-01-30T09:12:09;98483.88;;;7.40;68.28
1401;BME280;46518;48.842;8.926;2024-01-30T09:14:39;98489.84;;;7.27;68.48
1401;BME280;46518;48.842;8.926;2024-01-30T09:17:08;98498.81;;;7.39;68.21
1401;BME280;46518;48.842;8.926;2024-01-30T09:19:38;98494.50;;;7.31;68.40
1401;BME280;46518;48.842;8.926;2024-01-30T09:22:06;98491.97;;;7.45;67.42
1401;BME280;46518;48.842;8.926;2024-01-30T09:24:35;98495.25;;;7.82;67.05
1401;BME280;46518;48.842;8.926;2024-01-30T09:27:03;98494.94;;;8.05;65.51
1401;BME280;46518;48.842;8.926;2024-01-30T09:29:32;98493.03;;;8.27;65.35
1401;BME280;46518;48.842;8.926;2024-01-30T09:32:01;98494.13;;;8.46;64.30
1401;BME280;46518;48.842;8.926;2024-01-30T09:34:30;98493.56;;;8.57;64.43
1401;BME280;46518;48.842;8.926;2024-01-30T09:37:00;98494.59;;;8.76;63.89
1401;BME280;46518;48.842;8.926;2024-01-30T09:39:29;98490.00;;;8.98;62.78
1401;BME280;46518;48.842;8.926;2024-01-30T09:42:02;98485.97;;;9.22;62.65
1401;BME280;46518;48.842;8.926;2024-01-30T09:44:34;98489.59;;;9.21;61.96
1401;BME280;46518;48.842;8.926;2024-01-30T09:47:04;98496.06;;;9.25;62.97
1401;BME280;46518;48.842;8.926;2024-01-30T09:49:34;98494.84;;;9.14;63.78
1401;BME280;46518;48.842;8.926;2024-01-30T09:52:06;98495.88;;;9.20;63.02
1401;BME280;46518;48.842;8.926;2024-01-30T09:54:36;98495.44;;;9.23;63.86
1401;BME280;46518;48.842;8.926;2024-01-30T09:57:05;98496.28;;;9.17;63.78
1401;BME280;46518;48.842;8.926;2024-01-30T09:59:34;98512.84;;;9.24;63.33
1401;BME280;46518;48.842;8.926;2024-01-30T10:02:03;98517.28;;;8.97;65.60
1401;BME280;46518;48.842;8.926;2024-01-30T10:04:31;98515.44;;;8.84;65.26
1401;BME280;46518;48.842;8.926;2024-01-30T10:07:01;98515.16;;;8.52;66.88
1401;BME280;46518;48.842;8.926;2024-01-30T10:09:33;98509.50;;;8.55;67.78
1401;BME280;46518;48.842;8.926;2024-01-30T10:12:02;98505.28;;;8.68;67.26
1401;BME280;46518;48.842;8.926;2024-01-30T10:14:31;98511.97;;;8.83;67.38
1401;BME280;46518;48.842;8.926;2024-01-30T10:17:01;98504.56;;;9.14;65.34
1401;BME280;46518;48.842;8.926;2024-01-30T10:19:40;98500.50;;;9.44;65.22
1401;BME280;46518;48.842;8.926;2024-01-30T10:22:09;98501.91;;;9.74;63.24
1401;BME280;46518;48.842;8.926;2024-01-30T10:24:39;98494.19;;;9.79;63.26
1401;BME280;46518;48.842;8.926;2024-01-30T10:27:07;98489.13;;;9.77;64.10
1401;BME280;46518;48.842;8.926;2024-01-30T10:29:37;98495.75;;;9.93;64.07
1401;BME280;46518;48.842;8.926;2024-01-30T10:32:08;98486.94;;;9.67;61.55
1401;BME280;46518;48.842;8.926;2024-01-30T10:34:36;98489.94;;;9.84;61.86
1401;BME280;46518;48.842;8.926;2024-01-30T10:37:07;98485.47;;;9.85;58.66
1401;BME280;46518;48.842;8.926;2024-01-30T10:39:43;98493.31;;;9.98;62.37
1401;BME280;46518;48.842;8.926;2024-01-30T10:42:12;98486.25;;;9.99;60.51
1401;BME280;46518;48.842;8.926;2024-01-30T10:44:50;98483.19;;;10.02;58.51
1401;BME280;46518;48.842;8.926;2024-01-30T10:47:26;98483.06;;;9.70;56.72
1401;BME280;46518;48.842;8.926;2024-01-30T10:49:56;98491.78;;;9.64;60.84
1401;BME280;46518;48.842;8.926;2024-01-30T10:52:25;98488.13;;;9.71;59.97
1401;BME280;46518;48.842;8.926;2024-01-30T10:54:56;98471.53;;;9.84;59.42
1401;BME280;46518;48.842;8.926;2024-01-30T10:57:27;98482.78;;;9.98;60.92
1401;BME280;46518;48.842;8.926;2024-01-30T10:59:58;98477.94;;;10.02;59.48
1401;BME280;46518;48.842;8.926;2024-01-30T11:02:27;98474.72;;;9.93;58.78
1401;BME280;46518;48.842;8.926;2024-01-30T11:04:58;98464.25;;;9.73;58.84
1401;BME280;46518;48.842;8.926;2024-01-30T11:07:29;98471.56;;;9.58;60.09
1401;BME280;46518;48.842;8.926;2024-01-30T11:10:02;98482.78;;;9.98;61.87
1401;BME280;46518;48.842;8.926;2024-01-30T11:12:33;98479.09;;;10.12;59.82
1401;BME280;46518;48.842;8.926;2024-01-30T11:15:02;98474.56;;;10.40;60.69
1401;BME280;46518;48.842;8.926;2024-01-30T11:17:50;98477.28;;;10.58;60.68
1401;BME280;46518;48.842;8.926;2024-01-30T11:20:22;98479.00;;;10.77;59.41
1401;BME280;46518;48.842;8.926;2024-01-30T11:22:55;98478.97;;;10.84;57.54
1401;BME280;46518;48.842;8.926;2024-01-30T11:25:26;98476.63;;;11.01;58.23
1401;BME280;46518;48.842;8.926;2024-01-30T11:27:55;98473.72;;;11.09;57.10
1401;BME280;46518;48.842;8.926;2024-01-30T11:30:25;98479.63;;;11.05;56.59
1401;BME280;46518;48.842;8.926;2024-01-30T11:33:01;98479.19;;;11.33;55.44
1401;BME280;46518;48.842;8.926;2024-01-30T11:35:32;98475.06;;;11.43;55.09
1401;BME280;46518;48.842;8.926;2024-01-30T11:38:02;98479.84;;;11.72;54.51
1401;BME280;46518;48.842;8.926;2024-01-30T11:40:32;98464.63;;;11.74;53.11
1401;BME280;46518;48.842;8.926;2024-01-30T11:43:03;98470.06;;;11.97;53.27
1401;BME280;46518;48.842;8.926;2024-01-30T11:45:35;98476.06;;;11.86;53.17
1401;BME280;46518;48.842;8.926;2024-01-30T11:48:05;98460.91;;;12.00;51.97
1401;BME280;46518;48.842;8.926;2024-01-30T11:50:38;98466.84;;;12.14;52.32
1401;BME280;46518;48.842;8.926;2024-01-30T11:53:09;98452.66;;;12.26;52.44
1401;BME280;46518;48.842;8.926;2024-01-30T11:55:39;98455.13;;;12.40;51.63
1401;BME280;46518;48.842;8.926;2024-01-30T11:58:08;98460.66;;;12.20;51.89
1401;BME280;46518;48.842;8.926;2024-01-30T12:00:36;98455.09;;;11.73;53.30
1401;BME280;46518;48.842;8.926;2024-01-30T12:03:05;98456.41;;;11.63;54.51
1401;BME280;46518;48.842;8.926;2024-01-30T12:05:34;98447.75;;;11.56;56.54
1401;BME280;46518;48.842;8.926;2024-01-30T12:08:04;98448.50;;;11.63;57.30
1401;BME280;46518;48.842;8.926;2024-01-30T12:10:32;98446.75;;;11.76;56.61
1401;BME280;46518;48.842;8.926;2024-01-30T12:13:02;98446.97;;;11.93;55.16
1401;BME280;46518;48.842;8.926;2024-01-30T12:15:31;98436.84;;;12.08;54.90
1401;BME280;46518;48.842;8.926;2024-01-30T12:18:06;98439.09;;;12.23;54.48
1401;BME280;46518;48.842;8.926;2024-01-30T12:20:37;98427.59;;;12.17;53.16
1401;BME280;46518;48.842;8.926;2024-01-30T12:23:06;98431.44;;;12.63;52.41
1401;BME280;46518;48.842;8.926;2024-01-30T12:25:36;98426.31;;;12.80;51.48
1401;BME280;46518;48.842;8.926;2024-01-30T12:28:06;98421.53;;;13.01;51.03
1401;BME280;46518;48.842;8.926;2024-01-30T12:30:35;98429.56;;;13.06;50.52
1401;BME280;46518;48.842;8.926;2024-01-30T12:33:03;98434.63;;;13.19;50.08
1401;BME280;46518;48.842;8.926;2024-01-30T12:35:34;98419.94;;;13.35;49.24
1401;BME280;46518;48.842;8.926;2024-01-30T12:38:09;98414.88;;;13.57;48.21
1401;BME280;46518;48.842;8.926;2024-01-30T12:40:37;98413.38;;;13.73;47.94
1401;BME280;46518;48.842;8.926;2024-01-30T12:43:09;98413.47;;;13.66;48.31
1401;BME280;46518;48.842;8.926;2024-01-30T12:45:37;98425.63;;;13.91;47.79
1401;BME280;46518;48.842;8.926;2024-01-30T12:48:06;98416.63;;;13.92;46.63
1401;BME280;46518;48.842;8.926;2024-01-30T12:50:35;98416.44;;;14.10;46.82
1401;BME280;46518;48.842;8.926;2024-01-30T12:53:03;98420.44;;;14.24;45.53
1401;BME280;46518;48.842;8.926;2024-01-30T12:55:34;98421.84;;;14.44;45.76
1401;BME280;46518;48.842;8.926;2024-01-30T12:58:02;98403.19;;;14.22;46.72
1401;BME280;46518;48.842;8.926;2024-01-30T13:00:32;98414.28;;;14.64;46.92
1401;BME280;46518;48.842;8.926;2024-01-30T13:03:01;98417.34;;;14.44;45.34
1401;BME280;46518;48.842;8.926;2024-01-30T13:05:29;98414.56;;;14.51;44.12
1401;BME280;46518;48.842;8.926;2024-01-30T13:07:58;98410.81;;;14.18;45.58
1401;BME280;46518;48.842;8.926;2024-01-30T13:10:26;98406.97;;;14.55;44.03
1401;BME280;46518;48.842;8.926;2024-01-30T13:12:54;98405.78;;;14.79;43.48
1401;BME280;46518;48.842;8.926;2024-01-30T13:15:23;98406.44;;;15.03;44.01
1401;BME280;46518;48.842;8.926;2024-01-30T13:17:52;98403.59;;;15.27;43.65
1401;BME280;46518;48.842;8.926;2024-01-30T13:20:21;98401.69;;;15.44;44.05
1401;BME280;46518;48.842;8.926;2024-01-30T13:22:49;98398.38;;;15.54;44.47
1401;BME280;46518;48.842;8.926;2024-01-30T13:25:18;98390.00;;;15.62;44.39
1401;BME280;46518;48.842;8.926;2024-01-30T13:27:46;98388.16;;;15.63;44.24
1401;BME280;46518;48.842;8.926;2024-01-30T13:30:14;98391.06;;;15.61;44.10